Flight Track Log - Related Links

Times and Time Zones

All times are in EST time to prevent confusion due to time zone crossing. See the N143DR flight status page for this flight to view local times or setup timezone preferences in your user account.

Time Position Orientation Groundspeed Altitude Reporting Facility
EST Latitude Longitude Course Direction KTS MPH feet Rate Location/Type
Mon 07:42:35 PM 39.0000 -76.9333 360° North 71 82 600  Level Potomac TRACON
Mon 07:43:35 PM 39.0167 -76.9333 360° North 100 115 1,300 650 Climbing Potomac TRACON
Mon 07:44:35 PM 39.0500 -76.9500 339° North 99 114 1,900 650 Climbing Potomac TRACON
Mon 07:45:35 PM 39.0833 -76.9500 360° North 105 121 2,600 650 Climbing Potomac TRACON
Mon 07:46:35 PM 39.1000 -76.9500 360° North 95 109 3,200 550 Climbing Potomac TRACON
Mon 07:47:35 PM 39.1333 -76.9500 360° North 91 105 3,700 500 Climbing Potomac TRACON
Mon 07:48:35 PM 39.1500 -76.9500 360° North 89 102 4,200 500 Climbing Potomac TRACON
Mon 07:49:35 PM 39.1833 -76.9500 360° North 86 99 4,700 400 Climbing Potomac TRACON
Mon 07:50:35 PM 39.2000 -76.9667 322° Northwest 89 102 5,000 158 Climbing Potomac TRACON
Mon 07:51:29 PM 39.2167 -76.9667 360° North 102 117 5,000  Level Potomac TRACON
Mon 07:52:30 PM 39.2500 -76.9667 360° North 107 123 5,000  Level Potomac TRACON
Mon 07:53:30 PM 39.2833 -76.9667 360° North 104 120 5,000 50 Level Potomac TRACON
Mon 07:54:30 PM 39.3167 -76.9833 339° North 105 121 5,100  Climbing Potomac TRACON
Mon 07:55:29 PM 39.3333 -76.9833 360° North 106 122 5,000  Descending Potomac TRACON
Mon 07:56:30 PM 39.3667 -76.9833 360° North 104 120 5,100 50 Climbing Potomac TRACON
Mon 07:57:30 PM 39.4000 -76.9500 38° Northeast 126 145 5,100 -50 Level Potomac TRACON
Mon 07:58:30 PM 39.4167 -76.9000 67° East 136 157 5,000  Descending Potomac TRACON
Mon 07:59:30 PM 39.4333 -76.8667 57° Northeast 134 154 5,100 50 Climbing Potomac TRACON
Mon 08:00:30 PM 39.4500 -76.8167 67° East 133 153 5,100  Level Potomac TRACON
Mon 08:01:30 PM 39.4667 -76.7833 57° Northeast 131 151 5,100  Level Potomac TRACON
Mon 08:02:36 PM 39.4833 -76.7500 57° Northeast 135 155 5,100  Level Potomac TRACON
Mon 08:03:36 PM 39.5167 -76.7000 49° Northeast 135 155 5,100  Level Potomac TRACON
Mon 08:04:36 PM 39.5333 -76.6667 57° Northeast 132 152 5,100  Level Potomac TRACON
Mon 08:05:36 PM 39.5500 -76.6167 67° East 133 153 5,100 -50 Level Potomac TRACON
Mon 08:06:36 PM 39.5667 -76.5833 57° Northeast 135 155 5,000  Descending Potomac TRACON
Mon 08:07:30 PM 39.5833 -76.5333 67° East 131 151 5,100  Climbing Potomac TRACON
Mon 08:08:36 PM 39.6000 -76.5000 57° Northeast 137 158 5,000 -47 Descending Potomac TRACON
Mon 08:09:37 PM 39.6167 -76.4500 67° East 137 158 5,000  Level Potomac TRACON
Mon 08:10:37 PM 39.6333 -76.4000 67° East 140 161 5,000 50 Level Potomac TRACON
Mon 08:11:37 PM 39.6500 -76.3667 57° Northeast 137 158 5,100 53 Climbing Potomac TRACON
Mon 08:12:31 PM 39.6667 -76.3167 67° East 138 159 5,100  Level Potomac TRACON
Mon 08:14:34 PM 39.7167 -76.2333 52° Northeast 135 155 5,100  Level Philadelphia TRACON
Mon 08:15:34 PM 39.7333 -76.1833 67° East 137 158 5,100  Level Philadelphia TRACON
Mon 08:16:34 PM 39.7500 -76.1500 57° Northeast 137 158 5,100  Level Philadelphia TRACON
Mon 08:17:34 PM 39.7667 -76.1000 67° East 137 158 5,100  Level Philadelphia TRACON
Mon 08:18:34 PM 39.7833 -76.0667 57° Northeast 138 159 5,100  Level Philadelphia TRACON
Mon 08:19:34 PM 39.8000 -76.0167 67° East 135 155 5,100  Level Philadelphia TRACON
Mon 08:20:34 PM 39.8167 -75.9667 67° East 137 158 5,100  Level Philadelphia TRACON
Mon 08:21:34 PM 39.8333 -75.9333 57° Northeast 138 159 5,100  Level Philadelphia TRACON
Mon 08:22:28 PM 39.8500 -75.8833 67° East 139 160 5,100  Level Philadelphia TRACON
Mon 08:23:28 PM 39.8667 -75.8333 67° East 140 161 5,100  Level Philadelphia TRACON
Mon 08:24:28 PM 39.8833 -75.8000 57° Northeast 138 159 5,100  Level Philadelphia TRACON
Mon 08:25:28 PM 39.9000 -75.7500 67° East 145 167 5,100  Level Philadelphia TRACON
Mon 08:26:28 PM 39.9167 -75.7000 66° East 143 165 5,100  Level Philadelphia TRACON
Mon 08:27:22 PM 39.9167 -75.6667 90° East 141 162 5,100  Level Philadelphia TRACON
Mon 08:28:28 PM 39.9500 -75.6167 49° Northeast 140 161 5,100  Level Philadelphia TRACON
Mon 08:29:28 PM 39.9667 -75.5667 66° East 140 161 5,100  Level Philadelphia TRACON
Mon 08:30:28 PM 39.9833 -75.5167 66° East 141 162 5,100  Level Philadelphia TRACON
Mon 08:31:28 PM 40.0000 -75.4833 57° Northeast 141 162 5,100  Level Philadelphia TRACON
Mon 08:32:23 PM 40.0167 -75.4333 66° East 143 165 5,100  Level Philadelphia TRACON
Mon 08:33:29 PM 40.0333 -75.3833 66° East 140 161 5,100  Level Philadelphia TRACON
Mon 08:34:29 PM 40.0667 -75.3333 49° Northeast 145 167 5,100  Level Philadelphia TRACON
Mon 08:35:29 PM 40.0833 -75.3000 57° Northeast 144 166 5,100  Level Philadelphia TRACON
Mon 08:36:29 PM 40.1000 -75.2500 66° East 145 167 5,100 -150 Level Philadelphia TRACON
Mon 08:37:29 PM 40.1167 -75.2000 66° East 148 170 4,800 -550 Descending Philadelphia TRACON
Mon 08:38:29 PM 40.1333 -75.1500 66° East 159 183 4,000 -750 Descending Philadelphia TRACON
Mon 08:39:29 PM 40.1667 -75.1000 49° Northeast 156 180 3,300 -474 Descending Philadelphia TRACON
Mon 08:40:23 PM 40.1833 -75.0667 57° Northeast 148 170 3,100 -105 Descending Philadelphia TRACON
Mon 08:41:23 PM 40.2000 -75.0167 66° East 138 159 3,100  Level Philadelphia TRACON
Mon 08:42:29 PM 40.2333 -74.9833 37° Northeast 143 165 3,100  Level Philadelphia TRACON
Mon 08:43:29 PM 40.2500 -74.9500 57° Northeast 139 160 3,100  Level Philadelphia TRACON
Mon 08:44:29 PM 40.2833 -74.9000 49° Northeast 142 163 3,100 -450 Level Philadelphia TRACON
Mon 08:45:29 PM 40.3000 -74.8667 57° Northeast 157 181 2,200 -895 Descending Philadelphia TRACON
Mon 08:46:23 PM 40.3167 -74.8167 66° East 120 138 1,400 -600 Descending Philadelphia TRACON
Mon 08:47:29 PM 40.3000 -74.8000 143° Southeast 56 64 1,000 -364 Descending Philadelphia TRACON

Login

Don't have an account? Register now (free) for customized features, flight alerts, and more!